Time;durP1;ratioP1;P1;durP2;ratioP2;P2;SDS_P1;SDS_P2;PMS_P1;PMS_P2;Temp;Humidity;BMP_temperature;BMP_pressure;BME280_temperature;BME280_humidity;BME280_pressure;Samples;Min_cycle;Max_cycle;Signal;HPM_P1;HPM_P2
2023/05/26 00:01:40;;;;;;;20.27;10.03;;;9.40;1.00;;;;;;5018301;28;20821;-58
2023/05/26 00:04:07;;;;;;;22.50;9.40;;;9.30;1.00;;;;;;5028668;28;20792;-58
2023/05/26 00:06:34;;;;;;;24.87;11.30;;;9.40;1.00;;;;;;5038338;28;20491;-58
2023/05/26 00:09:02;;;;;;;26.13;10.70;;;9.40;1.00;;;;;;5038049;28;20463;-59
2023/05/26 00:11:29;;;;;;;21.90;10.33;;;9.40;1.00;;;;;;5037998;28;20463;-57
2023/05/26 00:13:58;;;;;;;25.43;9.60;;;9.30;99.90;;;;;;5037782;28;20469;-57
2023/05/26 00:16:25;;;;;;;24.87;9.50;;;9.30;99.90;;;;;;5038108;28;20434;-58
2023/05/26 00:18:52;;;;;;;20.77;9.57;;;9.30;99.90;;;;;;5038088;28;20470;-58
2023/05/26 00:21:19;;;;;;;20.43;8.37;;;9.20;99.90;;;;;;5037732;28;20558;-58
2023/05/26 00:23:47;;;;;;;19.77;9.87;;;9.20;99.90;;;;;;5037949;28;20865;-59
2023/05/26 00:26:14;;;;;;;26.53;11.47;;;9.10;99.90;;;;;;5037810;28;20491;-58
2023/05/26 00:28:41;;;;;;;20.33;10.23;;;9.10;1.00;;;;;;5044227;28;20588;-58
2023/05/26 00:31:10;;;;;;;18.00;9.13;;;9.10;1.00;;;;;;5057830;28;20484;-58
2023/05/26 00:33:37;;;;;;;18.90;9.67;;;9.10;1.00;;;;;;5057518;28;20462;-58
2023/05/26 00:36:04;;;;;;;24.03;9.90;;;9.10;1.00;;;;;;5057776;28;20545;-58
2023/05/26 00:38:31;;;;;;;30.37;11.20;;;9.10;1.00;;;;;;5057752;28;20527;-58
2023/05/26 00:40:59;;;;;;;22.10;9.60;;;9.10;1.00;;;;;;5057358;28;20462;-58
2023/05/26 00:43:26;;;;;;;22.30;10.70;;;9.00;1.00;;;;;;5057608;28;20498;-58
2023/05/26 00:45:53;;;;;;;24.53;9.47;;;9.00;1.00;;;;;;5057094;28;20841;-58
2023/05/26 00:48:22;;;;;;;23.10;10.40;;;9.00;1.00;;;;;;5057438;28;20770;-58
2023/05/26 00:50:49;;;;;;;28.37;10.60;;;9.00;1.00;;;;;;5057263;28;20826;-59
2023/05/26 00:53:18;;;;;;;26.33;10.50;;;8.90;1.00;;;;;;5056818;28;20463;-58
2023/05/26 00:55:47;;;;;;;20.57;9.50;;;8.90;1.00;;;;;;5057324;28;20458;-58
2023/05/26 00:58:15;;;;;;;26.60;9.90;;;8.90;1.00;;;;;;5057217;28;20561;-58
2023/05/26 01:00:42;;;;;;;21.63;9.67;;;8.80;1.00;;;;;;5057406;28;20822;-58
2023/05/26 01:03:13;;;;;;;21.60;9.73;;;8.80;1.00;;;;;;5057350;28;20724;-57
2023/05/26 01:05:42;;;;;;;20.67;9.70;;;8.70;1.00;;;;;;5041190;28;20467;-58
2023/05/26 01:08:09;;;;;;;28.93;10.60;;;8.70;1.00;;;;;;5037079;28;20551;-58
2023/05/26 01:10:36;;;;;;;23.07;9.20;;;8.60;1.00;;;;;;5037139;28;20474;-58
2023/05/26 01:13:08;;;;;;;25.03;9.20;;;8.60;1.00;;;;;;5037599;28;20876;-58
2023/05/26 01:15:41;;;;;;;24.40;9.63;;;8.60;1.00;;;;;;5036733;28;20467;-57
2023/05/26 01:18:13;;;;;;;23.83;9.07;;;8.50;1.00;;;;;;5037083;28;20438;-58
2023/05/26 01:20:48;;;;;;;23.90;9.00;;;8.50;1.00;;;;;;5037259;28;20525;-59
2023/05/26 01:23:28;;;;;;;25.87;10.13;;;8.50;1.00;;;;;;5036921;28;20962;-58
2023/05/26 01:26:31;;;;;;;27.40;8.83;;;8.50;1.00;;;;;;5037039;28;20764;-58
2023/05/26 01:29:06;;;;;;;24.43;8.47;;;8.50;1.00;;;;;;4985471;28;20501;-58
2023/05/26 01:31:34;;;;;;;28.07;8.93;;;8.40;1.00;;;;;;5036483;28;20461;-58
2023/05/26 01:34:01;;;;;;;28.27;11.63;;;8.40;1.00;;;;;;5037082;28;20456;-57
2023/05/26 01:36:29;;;;;;;31.87;9.67;;;8.40;1.00;;;;;;5037327;28;20430;-58
2023/05/26 01:38:57;;;;;;;22.40;8.40;;;8.40;1.00;;;;;;5037331;28;20470;-59
2023/05/26 01:41:29;;;;;;;24.40;8.83;;;8.30;1.00;;;;;;5036872;28;20756;-58
2023/05/26 01:44:03;;;;;;;23.97;9.13;;;8.30;1.00;;;;;;5037039;28;20790;-57
2023/05/26 01:46:39;;;;;;;21.53;9.07;;;8.30;1.00;;;;;;5036909;28;20495;-57
2023/05/26 01:49:10;;;;;;;23.77;8.90;;;8.30;1.00;;;;;;5037265;28;20558;-57
2023/05/26 01:51:40;;;;;;;23.97;7.57;;;8.20;1.00;;;;;;5036691;28;20468;-59
2023/05/26 01:54:09;;;;;;;25.10;8.30;;;8.20;1.00;;;;;;5037135;28;20553;-58
2023/05/26 01:56:38;;;;;;;22.60;7.50;;;8.10;1.00;;;;;;5037036;28;20960;-57
2023/05/26 01:59:07;;;;;;;23.33;8.80;;;8.10;1.00;;;;;;5037084;28;20469;-58
2023/05/26 02:01:35;;;;;;;27.93;8.27;;;8.10;1.00;;;;;;5036294;28;20467;-57
2023/05/26 02:04:02;;;;;;;20.50;8.70;;;8.10;1.00;;;;;;5037143;28;20546;-58
2023/05/26 02:06:29;;;;;;;19.33;8.20;;;8.10;1.00;;;;;;5040542;28;20497;-56
2023/05/26 02:08:57;;;;;;;23.07;7.73;;;8.00;1.00;;;;;;5040161;28;20469;-57
2023/05/26 02:11:24;;;;;;;19.30;8.10;;;7.90;1.00;;;;;;5039710;28;20459;-56
2023/05/26 02:13:52;;;;;;;22.47;7.50;;;7.90;1.00;;;;;;5039534;28;20479;-57
2023/05/26 02:16:21;;;;;;;26.17;8.20;;;7.90;1.00;;;;;;5040464;28;20521;-58
2023/05/26 02:18:48;;;;;;;28.30;7.80;;;7.90;1.00;;;;;;5040324;28;20819;-58
2023/05/26 02:21:16;;;;;;;21.03;8.77;;;7.90;1.00;;;;;;5039935;28;20550;-57
2023/05/26 02:23:44;;;;;;;28.40;8.00;;;7.80;1.00;;;;;;5039759;28;20561;-57
2023/05/26 02:26:11;;;;;;;25.67;7.87;;;7.80;1.00;;;;;;5040037;28;20466;-58
2023/05/26 02:28:38;;;;;;;21.63;7.30;;;7.80;1.00;;;;;;5039459;28;20586;-57
2023/05/26 02:31:06;;;;;;;22.23;7.63;;;7.80;1.00;;;;;;5040221;28;20815;-57
2023/05/26 02:33:35;;;;;;;24.57;8.60;;;7.70;1.00;;;;;;5039665;28;20474;-58
2023/05/26 02:36:02;;;;;;;24.40;7.27;;;7.70;1.00;;;;;;5039813;28;20557;-60
2023/05/26 02:38:29;;;;;;;22.20;6.93;;;7.70;2.60;;;;;;5039879;28;20469;-58
2023/05/26 02:40:56;;;;;;;24.27;7.40;;;7.70;52.00;;;;;;5040091;28;20463;-58
2023/05/26 02:43:23;;;;;;;19.77;9.27;;;7.70;99.90;;;;;;5039906;28;20758;-58
2023/05/26 02:45:51;;;;;;;18.07;8.30;;;7.70;99.90;;;;;;5039819;28;20533;-59
2023/05/26 02:48:18;;;;;;;20.50;7.00;;;7.70;1.00;;;;;;5039859;28;20491;-58
2023/05/26 02:50:47;;;;;;;24.73;7.73;;;7.70;1.00;;;;;;5040070;28;20467;-58
2023/05/26 02:53:15;;;;;;;27.20;8.10;;;7.80;1.00;;;;;;5039316;28;20532;-58
2023/05/26 02:55:42;;;;;;;26.37;8.33;;;7.80;1.00;;;;;;5039955;28;20465;-58
2023/05/26 02:58:10;;;;;;;26.73;8.40;;;7.90;1.00;;;;;;5039122;28;20463;-59
2023/05/26 03:00:38;;;;;;;25.60;8.33;;;7.90;1.00;;;;;;5039488;28;20442;-58
2023/05/26 03:03:05;;;;;;;26.90;8.17;;;8.00;1.00;;;;;;5039975;28;20567;-58
2023/05/26 03:05:32;;;;;;;24.27;7.73;;;8.00;1.00;;;;;;5039199;28;20884;-59
2023/05/26 03:08:03;;;;;;;17.10;6.77;;;8.10;2.50;;;;;;5039221;28;20465;-58
2023/05/26 03:10:30;;;;;;;23.10;7.80;;;8.10;1.00;;;;;;5038980;28;20876;-57
2023/05/26 03:12:58;;;;;;;23.27;7.10;;;8.10;1.00;;;;;;5039136;28;20438;-59
2023/05/26 03:15:26;;;;;;;20.40;8.13;;;8.20;1.00;;;;;;5038474;28;20743;-57
2023/05/26 03:17:53;;;;;;;29.47;9.07;;;8.20;1.00;;;;;;5038931;28;20467;-58
2023/05/26 03:20:20;;;;;;;17.83;7.57;;;8.20;1.00;;;;;;5039270;28;20502;-58
2023/05/26 03:22:47;;;;;;;21.40;8.77;;;8.30;1.00;;;;;;5039144;28;20437;-57
2023/05/26 03:25:15;;;;;;;26.43;8.40;;;8.30;1.00;;;;;;5038784;28;20574;-57
2023/05/26 03:27:43;;;;;;;27.60;9.27;;;8.30;1.00;;;;;;5038703;28;20494;-58
2023/05/26 03:30:10;;;;;;;22.43;8.37;;;8.40;1.00;;;;;;5039016;28;20495;-58
2023/05/26 03:32:38;;;;;;;21.00;8.00;;;8.30;1.00;;;;;;5039133;28;20533;-58
2023/05/26 03:35:06;;;;;;;30.60;8.20;;;8.40;1.00;;;;;;5042962;28;20533;-58
2023/05/26 03:37:33;;;;;;;18.30;7.53;;;8.40;1.00;;;;;;5058752;28;20457;-58
2023/05/26 03:40:00;;;;;;;37.80;10.63;;;8.40;1.00;;;;;;5058606;28;20447;-58
2023/05/26 03:42:29;;;;;;;22.40;7.97;;;8.40;1.00;;;;;;5058729;28;20469;-58
2023/05/26 03:44:56;;;;;;;21.23;8.27;;;8.40;1.00;;;;;;5058260;28;20962;-59
2023/05/26 03:47:23;;;;;;;28.10;11.10;;;8.40;1.00;;;;;;5058479;28;20498;-58
2023/05/26 03:49:51;;;;;;;26.27;11.00;;;8.40;1.00;;;;;;5058269;28;20466;-60
2023/05/26 03:52:18;;;;;;;34.17;11.10;;;8.40;99.90;;;;;;5059355;28;20485;-61
2023/05/26 03:54:45;;;;;;;28.30;11.33;;;8.30;1.00;;;;;;5059652;28;20462;-61
2023/05/26 03:57:12;;;;;;;27.33;12.20;;;8.30;1.00;;;;;;5058666;28;20458;-61
2023/05/26 03:59:41;;;;;;;35.23;12.50;;;8.30;1.00;;;;;;5058705;28;20560;-60
2023/05/26 04:02:08;;;;;;;29.37;12.60;;;8.40;1.00;;;;;;5059095;28;20472;-61
2023/05/26 04:04:35;;;;;;;26.50;12.33;;;8.40;1.00;;;;;;5059142;28;20466;-58
2023/05/26 04:07:03;;;;;;;29.93;13.10;;;8.30;1.00;;;;;;5058216;28;20486;-58
2023/05/26 04:09:30;;;;;;;28.27;11.80;;;8.30;1.00;;;;;;5058178;28;20516;-58
2023/05/26 04:11:58;;;;;;;29.80;13.47;;;8.40;1.00;;;;;;5058047;28;20557;-58
2023/05/26 04:14:25;;;;;;;33.67;14.00;;;8.40;1.00;;;;;;5058261;28;20466;-59
2023/05/26 04:16:53;;;;;;;21.70;13.53;;;8.20;1.00;;;;;;5058360;28;20558;-58
2023/05/26 04:19:20;;;;;;;29.87;13.70;;;8.30;1.00;;;;;;5057697;28;20826;-58
2023/05/26 04:21:48;;;;;;;40.30;16.20;;;8.30;1.00;;;;;;5057746;28;20473;-58
2023/05/26 04:24:15;;;;;;;36.10;13.80;;;8.40;1.00;;;;;;5057682;28;20553;-60
2023/05/26 04:26:43;;;;;;;28.53;13.93;;;8.40;1.00;;;;;;5057150;28;20463;-60
2023/05/26 04:29:11;;;;;;;29.87;14.83;;;8.50;1.00;;;;;;5058019;28;20490;-59
2023/05/26 04:31:41;;;;;;;29.73;15.10;;;8.60;1.00;;;;;;5057515;28;20458;-60
2023/05/26 04:34:10;;;;;;;31.13;15.27;;;8.60;1.00;;;;;;5032837;28;20463;-60
2023/05/26 04:36:38;;;;;;;29.87;14.50;;;8.70;99.90;;;;;;5018343;28;20472;-60
2023/05/26 04:39:06;;;;;;;28.00;13.37;;;8.70;82.60;;;;;;5017907;28;20443;-59
2023/05/26 04:41:33;;;;;;;25.13;12.70;;;8.70;23.50;;;;;;5017642;28;20464;-59
2023/05/26 04:44:01;;;;;;;34.50;15.87;;;8.70;1.00;;;;;;5017890;28;20877;-59
2023/05/26 04:46:29;;;;;;;34.20;14.10;;;8.60;1.00;;;;;;5017638;28;20463;-59
2023/05/26 04:48:57;;;;;;;26.63;13.20;;;8.60;1.00;;;;;;5018115;28;20492;-60
2023/05/26 04:51:26;;;;;;;29.33;12.80;;;8.70;1.00;;;;;;5017986;28;20523;-60
2023/05/26 04:53:53;;;;;;;30.00;12.40;;;8.70;1.00;;;;;;5055785;28;20462;-59
2023/05/26 04:56:21;;;;;;;40.60;14.27;;;8.60;1.00;;;;;;5054572;28;20557;-60
2023/05/26 04:58:48;;;;;;;34.60;14.60;;;8.70;1.00;;;;;;5054692;28;20437;-60
2023/05/26 05:01:17;;;;;;;28.67;12.83;;;8.60;1.00;;;;;;5055296;28;20951;-59
2023/05/26 05:03:44;;;;;;;29.53;13.03;;;8.60;1.00;;;;;;5054989;28;20437;-62
2023/05/26 05:06:12;;;;;;;34.67;12.73;;;8.60;1.00;;;;;;5054782;28;20463;-59
2023/05/26 05:08:40;;;;;;;29.17;14.20;;;8.70;1.00;;;;;;5055427;28;20471;-61
2023/05/26 05:11:08;;;;;;;27.63;12.53;;;8.60;1.00;;;;;;5052581;28;20809;-60
2023/05/26 05:13:35;;;;;;;30.03;13.53;;;8.70;1.00;;;;;;5034926;28;20463;-58
2023/05/26 05:16:03;;;;;;;34.47;13.10;;;8.70;1.00;;;;;;5034539;28;20436;-60
2023/05/26 05:18:30;;;;;;;37.60;14.47;;;8.70;1.00;;;;;;5035326;28;20887;-59
2023/05/26 05:20:57;;;;;;;33.10;12.80;;;8.70;1.00;;;;;;5034918;28;20467;-60
2023/05/26 05:23:24;;;;;;;24.27;11.70;;;8.70;1.00;;;;;;5034644;28;20485;-59
2023/05/26 05:25:53;;;;;;;25.17;12.73;;;8.70;1.00;;;;;;5035889;28;20459;-59
2023/05/26 05:28:20;;;;;;;30.80;13.20;;;8.70;1.00;;;;;;5035925;28;20491;-59
2023/05/26 05:30:48;;;;;;;28.60;13.97;;;8.80;1.00;;;;;;5037402;28;20459;-59
2023/05/26 05:33:15;;;;;;;31.97;12.60;;;8.90;1.00;;;;;;5037119;28;20851;-59
2023/05/26 05:35:42;;;;;;;30.30;12.10;;;8.80;99.90;;;;;;5050769;28;20452;-60
2023/05/26 05:38:09;;;;;;;31.00;11.93;;;8.90;99.90;;;;;;5057416;28;20458;-59
2023/05/26 05:40:37;;;;;;;22.47;11.97;;;8.90;99.90;;;;;;5060807;28;20494;-59
2023/05/26 05:43:05;;;;;;;28.30;12.77;;;8.90;99.90;;;;;;5054467;28;20451;-59
2023/05/26 05:45:33;;;;;;;30.30;13.90;;;8.90;99.90;;;;;;5044904;28;20461;-59
2023/05/26 05:48:00;;;;;;;28.47;12.63;;;9.00;99.90;;;;;;5050104;28;20485;-59
2023/05/26 05:50:27;;;;;;;26.17;13.43;;;9.10;99.90;;;;;;5049039;28;20462;-59
2023/05/26 05:52:54;;;;;;;36.13;12.03;;;9.30;99.90;;;;;;5042387;28;20532;-59
2023/05/26 05:55:21;;;;;;;29.63;12.50;;;9.20;52.00;;;;;;5040592;28;20884;-58
2023/05/26 05:57:49;;;;;;;36.47;13.10;;;9.20;99.90;;;;;;5040493;28;20451;-58
2023/05/26 06:00:18;;;;;;;25.83;12.13;;;9.20;99.90;;;;;;5040148;28;20769;-58
2023/05/26 06:02:46;;;;;;;35.30;14.00;;;9.40;99.90;;;;;;5040006;28;20471;-58
2023/05/26 06:05:13;;;;;;;28.97;12.30;;;9.40;1.00;;;;;;5038272;28;20577;-59
2023/05/26 06:07:40;;;;;;;33.00;12.03;;;9.50;2.10;;;;;;5038496;28;20491;-59
2023/05/26 06:10:09;;;;;;;31.57;11.93;;;9.60;1.00;;;;;;5038386;28;20565;-59
2023/05/26 06:12:36;;;;;;;31.93;12.60;;;9.40;1.00;;;;;;5039057;28;20557;-59
2023/05/26 06:15:03;;;;;;;27.10;10.67;;;9.40;1.00;;;;;;5038882;28;20807;-58
2023/05/26 06:17:32;;;;;;;23.57;12.30;;;9.40;1.00;;;;;;5037490;28;20459;-57
2023/05/26 06:19:59;;;;;;;30.43;12.53;;;9.60;1.00;;;;;;5039806;28;20455;-58
2023/05/26 06:22:26;;;;;;;27.10;13.07;;;9.60;1.00;;;;;;5039198;28;20751;-59
2023/05/26 06:24:53;;;;;;;26.80;11.30;;;9.60;1.00;;;;;;5038936;28;20566;-60
2023/05/26 06:27:20;;;;;;;24.33;12.03;;;9.50;1.00;;;;;;5038249;28;20459;-59
2023/05/26 06:29:48;;;;;;;27.33;12.70;;;9.70;1.00;;;;;;5037857;28;20492;-59
2023/05/26 06:32:15;;;;;;;22.00;11.27;;;9.80;99.90;;;;;;5039044;28;20463;-59
2023/05/26 06:34:44;;;;;;;22.73;12.13;;;9.90;99.90;;;;;;5038342;28;20731;-58
2023/05/26 06:37:11;;;;;;;31.23;14.33;;;10.00;99.90;;;;;;5040358;28;20868;-60
2023/05/26 06:39:38;;;;;;;24.83;12.37;;;9.90;99.90;;;;;;5041238;28;20478;-60
2023/05/26 06:42:06;;;;;;;29.17;13.57;;;10.00;99.90;;;;;;5040565;28;20471;-60
2023/05/26 06:44:34;;;;;;;36.27;13.93;;;10.00;99.90;;;;;;5040761;28;20472;-60
2023/05/26 06:47:01;;;;;;;39.63;14.20;;;10.30;99.90;;;;;;5040783;28;20881;-61
2023/05/26 06:49:29;;;;;;;25.30;11.17;;;10.40;99.90;;;;;;5039425;28;20491;-61
2023/05/26 06:51:58;;;;;;;27.27;11.47;;;10.40;99.80;;;;;;5039168;28;20469;-60
2023/05/26 06:54:25;;;;;;;23.87;11.87;;;10.30;99.90;;;;;;5038587;28;20463;-60
2023/05/26 06:56:52;;;;;;;25.93;11.20;;;10.40;99.90;;;;;;5038959;28;20467;-60
2023/05/26 06:59:19;;;;;;;29.67;11.80;;;10.40;99.90;;;;;;5039455;28;20546;-60
2023/05/26 07:01:46;;;;;;;29.83;12.43;;;10.40;99.90;;;;;;5039594;28;20462;-61
2023/05/26 07:04:13;;;;;;;29.90;11.30;;;10.30;99.90;;;;;;5042721;28;20475;-60
2023/05/26 07:06:41;;;;;;;28.87;12.80;;;10.40;99.90;;;;;;5043600;28;20466;-61
2023/05/26 07:09:10;;;;;;;28.53;11.37;;;10.40;99.90;;;;;;5041223;28;20581;-60
2023/05/26 07:11:37;;;;;;;26.97;12.60;;;10.30;99.90;;;;;;5040694;28;20483;-61
2023/05/26 07:14:04;;;;;;;23.47;11.53;;;10.30;99.90;;;;;;5039330;28;20506;-60
2023/05/26 07:16:32;;;;;;;21.10;11.53;;;10.30;99.90;;;;;;5040060;28;20530;-60
2023/05/26 07:18:59;;;;;;;28.43;12.40;;;10.30;99.90;;;;;;5039612;28;20510;-60
2023/05/26 07:21:27;;;;;;;25.63;11.47;;;10.60;99.90;;;;;;5039517;28;20961;-60
2023/05/26 07:23:55;;;;;;;27.07;11.50;;;10.70;95.50;;;;;;5055774;28;20535;-61
2023/05/26 07:26:23;;;;;;;24.17;12.67;;;10.70;21.00;;;;;;5057856;28;20540;-60
2023/05/26 07:28:51;;;;;;;27.83;12.10;;;10.50;1.00;;;;;;5057841;28;21026;-61
2023/05/26 07:31:19;;;;;;;30.20;12.10;;;10.50;1.00;;;;;;5042237;28;20471;-60
2023/05/26 07:33:49;;;;;;;29.00;12.57;;;10.60;15.60;;;;;;5038489;28;20467;-60
2023/05/26 07:36:17;;;;;;;28.10;13.53;;;10.60;22.40;;;;;;5035278;28;20545;-60
2023/05/26 07:38:46;;;;;;;29.50;13.53;;;10.80;1.00;;;;;;5036828;28;20510;-60
2023/05/26 07:41:14;;;;;;;32.47;12.03;;;11.00;1.00;;;;;;5037795;28;20766;-60
2023/05/26 07:43:42;;;;;;;25.40;12.23;;;11.00;1.00;;;;;;5037003;28;20442;-61
2023/05/26 07:46:10;;;;;;;29.13;11.23;;;11.00;1.00;;;;;;5036596;28;20460;-60
2023/05/26 07:48:37;;;;;;;28.57;12.10;;;11.10;1.00;;;;;;5036091;28;20526;-60
2023/05/26 07:51:05;;;;;;;28.97;11.97;;;10.80;1.00;;;;;;5036991;28;20558;-60
2023/05/26 07:53:32;;;;;;;26.70;11.37;;;11.00;1.00;;;;;;5036930;28;20467;-60
2023/05/26 07:55:59;;;;;;;20.03;11.43;;;11.30;1.00;;;;;;5037037;28;20467;-61
2023/05/26 07:58:26;;;;;;;22.90;11.63;;;11.40;1.00;;;;;;5037844;28;20455;-60
2023/05/26 08:00:55;;;;;;;21.17;10.73;;;11.60;99.90;;;;;;5038092;28;20558;-58
2023/05/26 08:03:22;;;;;;;29.23;12.30;;;11.90;99.90;;;;;;5037122;28;20490;-60
2023/05/26 08:05:49;;;;;;;24.23;12.20;;;12.50;99.90;;;;;;5037388;28;20448;-61
2023/05/26 08:08:16;;;;;;;21.47;10.90;;;12.80;41.90;;;;;;5037721;28;20490;-60
2023/05/26 08:10:43;;;;;;;30.23;12.10;;;13.10;1.00;;;;;;5037225;28;20465;-61
2023/05/26 08:13:10;;;;;;;28.50;12.63;;;13.10;1.00;;;;;;5036663;28;20442;-61
2023/05/26 08:15:38;;;;;;;19.57;11.47;;;12.90;1.00;;;;;;5037230;28;20541;-60
2023/05/26 08:18:07;;;;;;;21.10;10.27;;;13.50;17.80;;;;;;5036556;28;20557;-61
2023/05/26 08:20:34;;;;;;;23.67;10.90;;;13.70;99.90;;;;;;5034759;28;20577;-60
2023/05/26 08:23:01;;;;;;;28.53;11.47;;;13.80;99.90;;;;;;5037558;28;20842;-61
2023/05/26 08:25:28;;;;;;;23.37;11.60;;;14.20;1.00;;;;;;5037353;28;20903;-60
2023/05/26 08:27:59;;;;;;;21.00;11.40;;;14.10;99.90;;;;;;5036895;28;20543;-61
2023/05/26 08:30:26;;;;;;;23.37;10.73;;;15.10;99.90;;;;;;5036693;28;20498;-61
2023/05/26 08:32:53;;;;;;;19.40;10.70;;;15.60;30.60;;;;;;5036512;28;20478;-62
2023/05/26 08:35:22;;;;;;;19.47;10.13;;;15.50;1.00;;;;;;5036759;28;20463;-61
2023/05/26 08:37:49;;;;;;;19.00;9.93;;;15.50;1.00;;;;;;5036849;28;20470;-61
2023/05/26 08:40:17;;;;;;;18.73;8.90;;;15.70;1.00;;;;;;5035568;28;20498;-61
2023/05/26 08:42:47;;;;;;;23.10;10.87;;;16.00;1.00;;;;;;5036539;28;20526;-61
2023/05/26 08:45:14;;;;;;;21.40;9.57;;;15.90;1.00;;;;;;5036600;28;20467;-60
2023/05/26 08:47:42;;;;;;;22.50;9.20;;;16.30;1.00;;;;;;5036490;28;20467;-61
2023/05/26 08:50:11;;;;;;;16.90;9.30;;;16.40;1.00;;;;;;5036777;28;20495;-61
2023/05/26 08:52:42;;;;;;;19.77;9.40;;;16.80;1.00;;;;;;5036796;28;20490;-61
2023/05/26 08:55:09;;;;;;;18.27;9.37;;;16.80;1.00;;;;;;5037027;28;20908;-61
2023/05/26 08:57:40;;;;;;;17.10;9.40;;;17.10;1.00;;;;;;5036457;28;20975;-61
2023/05/26 09:00:08;;;;;;;28.63;11.07;;;17.40;1.00;;;;;;5037650;28;20466;-61
2023/05/26 09:02:36;;;;;;;18.57;9.27;;;17.70;1.00;;;;;;5037229;28;20915;-61
2023/05/26 09:05:03;;;;;;;22.90;9.10;;;17.80;1.00;;;;;;5038356;28;20873;-61
2023/05/26 09:07:31;;;;;;;20.17;9.47;;;17.60;99.90;;;;;;5036841;28;20471;-60
2023/05/26 09:10:25;;;;;;;21.80;9.20;;;17.10;99.90;;;;;;5036803;28;20495;-61
2023/05/26 09:13:03;;;;;;;20.10;9.93;;;16.80;99.90;;;;;;5037542;28;20466;-61
2023/05/26 09:15:31;;;;;;;18.97;7.80;;;17.50;99.90;;;;;;5037542;28;20782;-60
2023/05/26 09:18:04;;;;;;;18.40;8.50;;;18.10;99.90;;;;;;5037234;28;20474;-61
2023/05/26 09:20:31;;;;;;;17.03;8.60;;;17.80;99.90;;;;;;5037989;28;20484;-61
2023/05/26 09:22:59;;;;;;;18.00;9.07;;;17.10;99.90;;;;;;5037002;28;20939;-61
2023/05/26 09:25:32;;;;;;;25.50;9.53;;;17.40;99.90;;;;;;5037032;28;20463;-61
2023/05/26 09:28:04;;;;;;;23.17;9.20;;;17.80;99.90;;;;;;5036440;28;20462;-60
2023/05/26 09:30:36;;;;;;;15.90;8.73;;;18.10;99.90;;;;;;5036541;28;20497;-61
2023/05/26 09:33:05;;;;;;;25.67;9.83;;;18.60;99.90;;;;;;5036400;28;20534;-60
2023/05/26 09:35:37;;;;;;;16.77;8.83;;;17.80;99.90;;;;;;5035487;28;20475;-61
2023/05/26 09:38:06;;;;;;;20.97;10.20;;;18.20;99.90;;;;;;5036733;28;20503;-61
2023/05/26 09:40:35;;;;;;;24.50;9.80;;;18.50;99.90;;;;;;5036194;28;20803;-61
2023/05/26 09:43:03;;;;;;;15.73;9.77;;;18.00;99.90;;;;;;5026067;28;20480;-61
2023/05/26 09:45:35;;;;;;;13.60;8.17;;;18.40;99.90;;;;;;5016202;28;20471;-61
2023/05/26 09:48:03;;;;;;;20.97;9.50;;;18.40;99.90;;;;;;5016079;28;20471;-62
2023/05/26 09:50:32;;;;;;;16.40;8.87;;;18.40;99.90;;;;;;5016699;28;20496;-61
2023/05/26 09:53:02;;;;;;;19.70;9.70;;;18.50;99.90;;;;;;5016563;28;20463;-62
2023/05/26 09:55:29;;;;;;;16.40;8.60;;;18.70;99.90;;;;;;5015707;28;20464;-62
2023/05/26 09:58:04;;;;;;;19.93;9.33;;;19.00;99.90;;;;;;5016062;28;20475;-62
2023/05/26 10:00:32;;;;;;;18.63;8.53;;;19.30;99.90;;;;;;5017080;28;20545;-61
2023/05/26 10:03:03;;;;;;;22.30;10.50;;;19.30;99.90;;;;;;5021217;28;21049;-61
2023/05/26 10:05:30;;;;;;;19.40;9.60;;;19.70;99.90;;;;;;5015945;28;20948;-62
2023/05/26 10:07:58;;;;;;;16.40;10.70;;;20.00;99.90;;;;;;5016505;28;20435;-61
2023/05/26 10:10:27;;;;;;;15.37;9.03;;;20.20;99.90;;;;;;5017132;28;20503;-61
2023/05/26 10:12:54;;;;;;;18.63;8.77;;;19.80;99.90;;;;;;5016521;28;20457;-61
2023/05/26 10:15:23;;;;;;;26.83;11.27;;;19.40;99.90;;;;;;5016682;28;20464;-61
2023/05/26 10:17:50;;;;;;;17.03;9.10;;;19.50;99.90;;;;;;5016434;28;20876;-60
2023/05/26 10:20:18;;;;;;;18.80;8.90;;;20.00;99.90;;;;;;5017797;28;20558;-60
2023/05/26 10:22:51;;;;;;;21.17;9.80;;;19.60;99.90;;;;;;5017415;28;20601;-60
2023/05/26 10:25:24;;;;;;;21.67;8.90;;;20.10;99.90;;;;;;5030810;28;20502;-61
2023/05/26 10:27:58;;;;;;;23.90;9.37;;;20.70;99.90;;;;;;5038437;28;20463;-61
2023/05/26 10:30:28;;;;;;;15.27;8.13;;;19.80;99.90;;;;;;5038705;28;20729;-62
2023/05/26 10:32:57;;;;;;;21.77;9.43;;;19.70;99.90;;;;;;5039342;28;20486;-60
2023/05/26 10:35:26;;;;;;;15.77;9.00;;;19.90;99.90;;;;;;5025481;28;20486;-62
2023/05/26 10:38:11;;;;;;;21.50;10.00;;;20.50;99.90;;;;;;5017962;28;20470;-60
2023/05/26 10:40:43;;;;;;;21.10;9.23;;;20.60;99.90;;;;;;5017972;28;20470;-60
2023/05/26 10:43:15;;;;;;;20.50;10.00;;;20.70;99.90;;;;;;5019785;28;20460;-61
2023/05/26 10:45:51;;;;;;;16.30;8.90;;;20.90;99.90;;;;;;5019421;28;20464;-60
2023/05/26 10:48:18;;;;;;;15.87;8.50;;;21.20;99.90;;;;;;5018862;28;20519;-61
2023/05/26 10:51:09;;;;;;;16.77;8.33;;;21.30;99.90;;;;;;5019250;28;20502;-61
2023/05/26 10:53:40;;;;;;;16.50;9.40;;;21.30;99.90;;;;;;5019001;28;20527;-61
2023/05/26 10:56:11;;;;;;;17.33;8.90;;;21.20;93.80;;;;;;5019007;28;20507;-60
2023/05/26 10:58:40;;;;;;;19.17;8.67;;;21.40;98.30;;;;;;5018656;28;20470;-60
2023/05/26 11:01:16;;;;;;;15.73;8.70;;;21.70;90.60;;;;;;5013640;28;20473;-61
2023/05/26 11:03:45;;;;;;;18.73;8.97;;;22.00;90.60;;;;;;4999402;28;20468;-59
2023/05/26 11:06:14;;;;;;;15.03;8.77;;;21.50;20.20;;;;;;5002908;28;20570;-60
2023/05/26 11:08:44;;;;;;;27.33;10.87;;;21.30;35.90;;;;;;5017134;28;20468;-61
2023/05/26 11:11:13;;;;;;;22.43;10.37;;;21.80;24.30;;;;;;5017103;28;20550;-60
2023/05/26 11:13:45;;;;;;;20.17;8.20;;;21.80;1.00;;;;;;5017653;28;20543;-61
2023/05/26 11:16:20;;;;;;;17.83;8.20;;;21.80;5.60;;;;;;5017558;28;20488;-61
2023/05/26 11:18:49;;;;;;;15.70;7.87;;;22.20;1.00;;;;;;5017328;28;20495;-61
2023/05/26 11:21:18;;;;;;;20.50;9.20;;;21.50;1.00;;;;;;5019139;28;20451;-61
2023/05/26 11:23:46;;;;;;;14.40;8.40;;;21.60;1.00;;;;;;5019587;28;20750;-61
2023/05/26 11:26:17;;;;;;;20.87;8.90;;;22.00;1.00;;;;;;5018406;28;20841;-60
2023/05/26 11:28:45;;;;;;;18.40;8.40;;;22.30;1.00;;;;;;5026611;28;20495;-60
2023/05/26 11:31:15;;;;;;;17.80;8.10;;;21.60;1.00;;;;;;5032173;28;20494;-63
2023/05/26 11:33:44;;;;;;;17.87;9.03;;;21.40;1.00;;;;;;5047642;28;20452;-62
2023/05/26 11:36:12;;;;;;;18.17;8.67;;;20.80;1.00;;;;;;5053094;28;20459;-61
2023/05/26 11:38:40;;;;;;;17.97;8.40;;;20.60;1.00;;;;;;5046329;28;20458;-63
2023/05/26 11:41:09;;;;;;;16.40;8.70;;;21.60;1.00;;;;;;5052743;28;20450;-61
2023/05/26 11:43:36;;;;;;;17.60;8.20;;;22.20;1.00;;;;;;5050038;28;20455;-60
2023/05/26 11:46:05;;;;;;;21.67;9.47;;;22.80;1.00;;;;;;5047313;28;20544;-61
2023/05/26 11:48:37;;;;;;;15.70;7.47;;;22.20;1.00;;;;;;5045630;28;20546;-62
2023/05/26 11:51:08;;;;;;;16.87;8.20;;;21.80;1.00;;;;;;5056579;28;20465;-61
2023/05/26 11:53:36;;;;;;;19.40;8.63;;;22.00;1.00;;;;;;5059428;28;20466;-62
2023/05/26 11:56:06;;;;;;;18.20;8.57;;;22.60;1.00;;;;;;5060589;28;20565;-63
2023/05/26 11:58:35;;;;;;;14.33;7.80;;;22.00;1.00;;;;;;5051882;28;20811;-62
2023/05/26 12:01:03;;;;;;;15.57;8.90;;;22.00;1.00;;;;;;5041866;28;20628;-60
2023/05/26 12:03:33;;;;;;;15.87;8.17;;;22.60;1.00;;;;;;5043423;28;20458;-60
2023/05/26 12:06:16;;;;;;;20.73;9.37;;;23.20;1.00;;;;;;5042282;28;20551;-63
2023/05/26 12:08:45;;;;;;;16.87;8.40;;;23.30;1.00;;;;;;5038656;28;20443;-63
2023/05/26 12:11:31;;;;;;;14.57;8.30;;;23.60;1.00;;;;;;5032365;28;20786;-62
2023/05/26 12:13:59;;;;;;;14.30;7.97;;;23.20;1.00;;;;;;5041253;28;20840;-64
2023/05/26 12:16:33;;;;;;;15.67;8.57;;;22.20;1.00;;;;;;5039634;28;20469;-63
2023/05/26 12:19:03;;;;;;;17.30;7.67;;;21.00;1.00;;;;;;5034115;28;20547;-62
2023/05/26 12:21:32;;;;;;;18.57;8.10;;;21.00;1.00;;;;;;5041346;28;20462;-63
2023/05/26 12:24:00;;;;;;;18.47;7.50;;;21.50;1.00;;;;;;5041073;28;20459;-63
2023/05/26 12:26:29;;;;;;;17.47;7.77;;;21.20;1.00;;;;;;5045624;28;20458;-63
2023/05/26 12:29:11;;;;;;;15.00;7.80;;;21.90;1.00;;;;;;5060944;28;20513;-63
2023/05/26 12:31:43;;;;;;;20.03;8.43;;;22.50;1.00;;;;;;5061633;28;20465;-63
2023/05/26 12:34:11;;;;;;;19.00;8.50;;;22.90;1.00;;;;;;5045596;28;20474;-63
2023/05/26 12:36:40;;;;;;;16.53;7.30;;;23.30;1.00;;;;;;5047313;28;20550;-63
2023/05/26 12:39:08;;;;;;;18.20;9.07;;;23.50;1.00;;;;;;5054958;28;20470;-63
2023/05/26 12:41:36;;;;;;;19.47;8.03;;;23.10;1.00;;;;;;5029346;28;20781;-63
2023/05/26 12:44:03;;;;;;;19.47;8.47;;;23.20;1.00;;;;;;5040088;28;20467;-63
2023/05/26 12:46:31;;;;;;;14.93;8.40;;;22.40;1.00;;;;;;5034509;28;20471;-63
2023/05/26 12:48:58;;;;;;;17.20;8.47;;;22.30;1.00;;;;;;5029151;28;20558;-63
2023/05/26 12:51:26;;;;;;;15.30;7.30;;;22.80;1.00;;;;;;5039661;28;20568;-63